BLUO2: Blue River, Blue, OK

                                SHEF ID:       BLUO2     Blue River near Blue, OK
STATION TYPE:
Regulating: Stage = 21.00, Flow = 5001

PRECIP STAGE RIV-FLOW BAT-LOAD
in ft cfs volt
Ccp-Rev Ccp-Rev Ccp-Rev Ccp-Rev
(America/Chicago)
04/28 00:00 0.00 8.59 483 12.97
04/28 01:00 0.00 8.49 460 12.97
04/28 02:00 0.00 8.41 442 12.89
04/28 03:00 0.00 8.31 420 12.89
04/28 04:00 0.00 8.24 405 12.89
04/28 05:00 0.00 8.15 388 12.89
04/28 06:00 0.00 8.08 375 12.89
04/28 07:00 0.00 8.01 362 12.89
04/28 08:00 0.00 7.96 352 12.89
04/28 09:00 0.00 7.92 345 13.05
04/28 10:00 0.00 7.86 334 12.89
04/28 11:00 0.50 7.85 332 12.89
04/28 12:00 0.02 7.82 326 13.44
04/28 13:00 0.00 7.78 319 13.68
04/28 14:00 0.00 7.74 311 13.92
04/28 15:00 0.00 7.71 305 13.68
04/28 16:00 0.00 7.68 300 13.13
04/28 17:00 0.00 7.67 298 13.05
04/28 18:00 0.00 7.66 296 13.29
04/28 19:00 0.00 7.65 294 13.60
04/28 20:00 0.00 7.69 302 13.13
04/28 21:00 0.00 7.75 313 12.97
04/28 22:00 0.00 7.87 336 12.97
04/28 23:00 0.00 8.00 360 12.97
Data processed at Wed 29Apr2026 04:47 GMT

NOTICE: If you are parsing this page

Please convert to using our Data API. Starting early 2026 we will be migrating to: https://water.usace.army.mil with modern pages rendered in JavaScript. When this migration completes you will no longer be able to scrape this page! CWMSDataAPI (CDA)

Timeseries IDs (TSIDs)

TSIDs used from left to right in the data table
BLUE.Precip-Inc.Total.1Hour.1Hour.Ccp-Rev
BLUE.Stage.Inst.1Hour.0.Ccp-Rev
BLUE.Flow.Inst.1Hour.0.Ccp-Rev
BLUE.Volt-Battery Load.Inst.1Hour.0.Ccp-Rev

                            

All information presented herein is the property of the government of the United States of America and may be revised or deleted at any time without prior notice. Dissemination of this information without the expressed written consent of the Public Affairs Office, Tulsa District U.S. Army Corps of Engineers is strictly prohibited. These data are gathered electronically and, as presented, have NOT undergone any form of quality control. These data are NOT guaranteed to be valid or correct.